Startpagina
METAR-TAF:

METAR-TAF

Vliegvelden :

Arad, Roemenië

Luchthaven Arad

breedte: 46-12N, lengte: 021-24E, hoogte: 117 m

Actueel weer

Dit bericht is 17 minuten geleden gemaakt, om 00:30 UTC
Wind 12 kt uit het noordnoordoosten
Temperatuur 3°C
Vochtigheid 100%
Druk 1013 hPa
Zicht: 4400 m
nevel

METAR: LRAR 220030Z AUTO 03012KT 4400 R09////// R27/P2000 BR BKN003/// 03/03 Q1013

Tijdstip: 02:47 (00:47 UTC)

Verwachting

Dit bericht is 10 uur en het 47 minuten geleden gemaakt, om 14:00 UTC
Verwachting geldig van 21 om 15 UTC tot 21 om 24 UTC
Wind 8 kt uit het noordnoordoosten
Zicht 10 km of meer
Gebroken wolken op 4500 ft

TAF: LRAR 211400Z 2115/2124 03008KT 9999 BKN045

Waarnemingen en weersverwachtingen van meer dan 4000 vliegvelden (METAR en TAF).

De beschikbare stations zijn de gele en rode punten op de kaart.

Ga met uw muis naar het station om de naam te zien.

Klik dan om waarnemingen en weersverwachtingen te zien.

kaart wijzigen: klik op de groene knoppen met een zwart kruis om in te zoomen, op de groene knop met een streepje om uit te zoomen of op de groene pijlen voor aangrenzende kaarten.


METAR-TAF: